Time;durP1;ratioP1;P1;durP2;ratioP2;P2;SDS_P1;SDS_P2;PMS_P1;PMS_P2;Temp;Humidity;BMP_temperature;BMP_pressure;BME280_temperature;BME280_humidity;BME280_pressure;Samples;Min_cycle;Max_cycle;Signal;HPM_P1;HPM_P2
2022/05/03 00:03:08;;;;;;;6.28;4.93;;;16.30;69.50;;;;;;10058324;28;20036;-58
2022/05/03 00:08:13;;;;;;;8.00;5.88;;;16.30;69.00;;;;;;10152006;28;20036;-59
2022/05/03 00:13:07;;;;;;;7.68;5.18;;;16.30;69.10;;;;;;10152513;28;20029;-58
2022/05/03 00:17:58;;;;;;;7.93;5.30;;;16.20;69.40;;;;;;10161639;28;20070;-61
2022/05/03 00:22:49;;;;;;;8.18;5.55;;;16.20;69.40;;;;;;10161776;28;20020;-59
2022/05/03 00:27:39;;;;;;;9.07;5.72;;;16.20;69.60;;;;;;10144804;28;20053;-59
2022/05/03 00:32:31;;;;;;;9.82;7.03;;;16.10;69.50;;;;;;10161060;28;20024;-60
2022/05/03 00:37:21;;;;;;;6.95;5.47;;;16.00;69.30;;;;;;10152919;28;20058;-64
2022/05/03 00:42:19;;;;;;;8.52;6.13;;;16.00;69.70;;;;;;10159163;28;20085;-58
2022/05/03 00:47:14;;;;;;;10.70;6.03;;;16.00;69.80;;;;;;10154433;28;20453;-59
2022/05/03 00:52:28;;;;;;;9.07;6.63;;;15.90;69.90;;;;;;10148784;28;20062;-59
2022/05/03 00:57:35;;;;;;;9.40;6.25;;;16.00;70.20;;;;;;10156979;28;20123;-61
2022/05/03 01:02:51;;;;;;;8.27;5.75;;;15.80;70.30;;;;;;10156763;28;20029;-59
2022/05/03 01:08:04;;;;;;;8.43;6.68;;;15.80;70.80;;;;;;10147243;28;20528;-58
2022/05/03 01:13:19;;;;;;;8.82;5.82;;;15.60;71.10;;;;;;10153934;28;20032;-62
2022/05/03 01:18:30;;;;;;;9.68;6.78;;;15.50;71.50;;;;;;10150847;28;20039;-62
2022/05/03 01:23:45;;;;;;;9.30;5.88;;;15.50;72.00;;;;;;10153661;28;20106;-64
2022/05/03 01:29:13;;;;;;;7.30;5.90;;;15.50;71.80;;;;;;10160513;28;20135;-59
2022/05/03 01:34:05;;;;;;;10.45;6.53;;;15.60;71.90;;;;;;10158456;28;20043;-59
2022/05/03 01:39:15;;;;;;;9.82;6.97;;;15.40;72.10;;;;;;10155511;28;20020;-60
2022/05/03 01:44:28;;;;;;;10.43;7.10;;;15.40;72.40;;;;;;10146878;28;20411;-59
2022/05/03 01:55:09;;;;;;;9.50;6.45;;;15.40;72.90;;;;;;10152631;28;20257;-57
2022/05/03 02:00:10;;;;;;;10.23;6.88;;;15.40;72.90;;;;;;10148938;28;20036;-59
2022/05/03 02:05:07;;;;;;;9.57;6.38;;;15.30;73.20;;;;;;10152807;28;20073;-58
2022/05/03 02:10:04;;;;;;;9.68;6.50;;;15.40;73.40;;;;;;10148826;28;20032;-59
2022/05/03 02:15:08;;;;;;;10.18;6.10;;;15.30;73.70;;;;;;10143207;28;20153;-59
2022/05/03 02:20:17;;;;;;;9.70;6.28;;;15.30;73.70;;;;;;10137837;28;20464;-58
2022/05/03 02:25:31;;;;;;;7.72;5.60;;;15.30;74.10;;;;;;10158967;28;20051;-60
2022/05/03 02:30:23;;;;;;;7.45;5.85;;;15.20;74.10;;;;;;10169113;28;20043;-58
2022/05/03 02:35:24;;;;;;;7.28;5.97;;;15.10;74.20;;;;;;10139945;28;20053;-60
2022/05/03 02:40:24;;;;;;;9.82;6.22;;;15.20;74.30;;;;;;10158166;28;20036;-58
2022/05/03 02:45:16;;;;;;;10.15;6.68;;;15.20;74.60;;;;;;10152283;28;20046;-58
2022/05/03 02:50:18;;;;;;;9.73;5.68;;;14.90;74.70;;;;;;10164441;28;20063;-66
2022/05/03 02:55:26;;;;;;;8.80;5.38;;;15.00;75.10;;;;;;10157431;28;20031;-57
2022/05/03 03:06:01;;;;;;;10.15;6.80;;;14.80;75.80;;;;;;10127671;28;20739;-61
2022/05/03 03:11:03;;;;;;;11.60;6.43;;;14.80;76.30;;;;;;10155348;28;20433;-58
2022/05/03 03:15:54;;;;;;;8.25;6.50;;;14.70;76.20;;;;;;10152928;28;20033;-58
2022/05/03 03:20:48;;;;;;;8.15;6.45;;;14.80;76.50;;;;;;10141726;28;20103;-69
2022/05/03 03:25:40;;;;;;;10.50;6.57;;;14.70;76.70;;;;;;10157188;28;20043;-61
2022/05/03 03:30:31;;;;;;;8.80;6.38;;;14.60;76.40;;;;;;10155361;28;20073;-58
2022/05/03 03:35:21;;;;;;;10.18;6.38;;;14.60;76.70;;;;;;10150348;28;20192;-63
2022/05/03 03:40:14;;;;;;;10.55;6.28;;;14.50;77.10;;;;;;10151359;28;20113;-58
2022/05/03 03:45:08;;;;;;;8.23;6.22;;;14.50;77.80;;;;;;10152741;28;20582;-59
2022/05/03 03:49:59;;;;;;;10.52;6.28;;;14.30;78.20;;;;;;10160733;28;20033;-59
2022/05/03 03:54:51;;;;;;;9.57;6.05;;;14.30;78.80;;;;;;10156814;28;20514;-59
2022/05/03 03:59:42;;;;;;;7.78;6.25;;;14.30;78.80;;;;;;10159218;28;20077;-59
2022/05/03 04:04:37;;;;;;;8.90;6.70;;;14.40;78.60;;;;;;10158393;28;20070;-60
2022/05/03 04:09:28;;;;;;;11.88;6.10;;;14.30;78.50;;;;;;10152558;28;20083;-58
2022/05/03 04:14:19;;;;;;;11.38;6.47;;;14.30;79.10;;;;;;10150576;28;20039;-61
2022/05/03 04:19:11;;;;;;;12.40;6.40;;;14.20;79.30;;;;;;10156585;28;20516;-58
2022/05/03 04:24:02;;;;;;;9.38;6.88;;;14.20;79.40;;;;;;10162746;28;20048;-64
2022/05/03 04:28:57;;;;;;;8.65;6.43;;;14.20;79.60;;;;;;10152712;28;20106;-66
2022/05/03 04:33:49;;;;;;;8.07;6.32;;;14.20;79.70;;;;;;10153213;28;20040;-58
2022/05/03 04:38:39;;;;;;;9.25;6.93;;;14.20;80.00;;;;;;10151573;28;20111;-59
2022/05/03 04:43:30;;;;;;;9.80;6.43;;;14.10;80.20;;;;;;10155896;28;20051;-60
2022/05/03 04:48:21;;;;;;;10.02;6.35;;;13.90;81.10;;;;;;10158855;28;20429;-58
2022/05/03 04:53:11;;;;;;;9.23;6.53;;;14.00;81.00;;;;;;10150135;28;20029;-57
2022/05/03 04:58:02;;;;;;;9.88;6.00;;;14.00;81.00;;;;;;10149752;28;20034;-59
2022/05/03 05:02:53;;;;;;;9.55;7.13;;;14.10;80.80;;;;;;10148145;28;20047;-60
2022/05/03 05:07:43;;;;;;;12.98;7.10;;;14.10;81.00;;;;;;10151432;28;20028;-61
2022/05/03 05:12:34;;;;;;;10.80;7.47;;;14.10;81.00;;;;;;10155681;28;20039;-60
2022/05/03 05:17:25;;;;;;;9.50;6.57;;;14.10;81.40;;;;;;10155892;28;20542;-59
2022/05/03 05:22:15;;;;;;;8.25;6.25;;;14.20;81.50;;;;;;10160211;28;20146;-60
2022/05/03 05:27:06;;;;;;;10.60;7.03;;;14.10;81.70;;;;;;10165186;28;20048;-56
2022/05/03 05:31:57;;;;;;;8.30;6.47;;;14.00;81.90;;;;;;10145393;28;20043;-58
2022/05/03 05:36:47;;;;;;;9.93;6.18;;;14.20;82.40;;;;;;10167987;28;20035;-59
2022/05/03 05:41:38;;;;;;;9.48;6.75;;;14.20;82.20;;;;;;10151967;28;20028;-59
2022/05/03 05:46:29;;;;;;;9.52;6.82;;;14.20;82.10;;;;;;10155507;28;20032;-61
2022/05/03 05:51:19;;;;;;;9.95;7.05;;;14.30;82.00;;;;;;10158194;28;20032;-59
2022/05/03 05:56:10;;;;;;;8.15;6.68;;;14.50;81.90;;;;;;10154157;28;20032;-58
2022/05/03 06:01:01;;;;;;;9.02;6.63;;;14.60;82.10;;;;;;10148322;28;20021;-59
2022/05/03 06:05:52;;;;;;;9.82;7.47;;;14.60;82.10;;;;;;10151899;28;20464;-64
2022/05/03 06:10:43;;;;;;;9.73;6.95;;;14.70;82.10;;;;;;10158304;28;20167;-60
2022/05/03 06:15:34;;;;;;;9.05;6.88;;;14.70;82.10;;;;;;10160146;28;20039;-59
2022/05/03 06:20:24;;;;;;;9.57;5.95;;;15.00;81.80;;;;;;10165504;28;20054;-63
2022/05/03 06:25:15;;;;;;;11.07;7.15;;;15.00;81.90;;;;;;10153593;28;20522;-60
2022/05/03 06:30:07;;;;;;;11.07;7.18;;;15.10;82.00;;;;;;10136120;28;20044;-60
2022/05/03 06:34:58;;;;;;;8.68;6.57;;;15.30;82.00;;;;;;10148276;28;20045;-58
2022/05/03 06:39:48;;;;;;;8.95;6.85;;;15.20;82.30;;;;;;10156438;28;20092;-59
2022/05/03 06:44:39;;;;;;;12.70;7.20;;;15.20;82.60;;;;;;10163023;28;20027;-60
2022/05/03 06:49:30;;;;;;;11.65;8.02;;;15.20;82.70;;;;;;10147903;28;20035;-58
2022/05/03 06:54:20;;;;;;;9.10;7.15;;;15.30;82.50;;;;;;10162808;28;20110;-62
2022/05/03 06:59:11;;;;;;;8.15;6.78;;;15.20;82.90;;;;;;10160614;28;20037;-58
2022/05/03 07:04:02;;;;;;;10.45;7.03;;;15.40;82.80;;;;;;10168180;28;20035;-59
2022/05/03 07:08:53;;;;;;;8.73;6.70;;;15.40;83.00;;;;;;10173335;28;20062;-61
2022/05/03 07:13:43;;;;;;;8.98;6.50;;;15.40;83.30;;;;;;10153122;28;20490;-59
2022/05/03 07:23:43;;;;;;;8.73;6.50;;;15.50;83.50;;;;;;10173531;28;20042;-63
2022/05/03 07:28:34;;;;;;;12.75;7.63;;;15.60;83.50;;;;;;10173203;28;20291;-60
2022/05/03 07:33:24;;;;;;;10.10;6.63;;;15.70;83.10;;;;;;10167916;28;20028;-58
2022/05/03 07:38:15;;;;;;;12.70;8.05;;;16.10;82.70;;;;;;10153867;28;20040;-63
2022/05/03 07:43:06;;;;;;;10.45;7.15;;;16.20;82.40;;;;;;10172577;28;20448;-60
2022/05/03 07:47:56;;;;;;;13.07;7.85;;;16.30;82.30;;;;;;10172787;28;20032;-61
2022/05/03 07:52:47;;;;;;;11.65;7.68;;;16.40;82.20;;;;;;10170599;28;20110;-61
2022/05/03 07:57:38;;;;;;;14.38;8.63;;;16.40;82.40;;;;;;10160181;28;20029;-61
2022/05/03 08:02:28;;;;;;;10.20;8.23;;;16.40;82.50;;;;;;10169811;28;20028;-64
2022/05/03 08:07:20;;;;;;;13.18;7.90;;;16.50;82.10;;;;;;10149520;28;20071;-60
2022/05/03 08:12:11;;;;;;;11.73;8.88;;;16.80;81.80;;;;;;10159487;28;20024;-59
2022/05/03 08:17:02;;;;;;;12.23;7.93;;;16.90;81.60;;;;;;10152018;28;20039;-65
2022/05/03 08:21:56;;;;;;;10.70;8.20;;;17.20;81.20;;;;;;10165383;28;20105;-59
2022/05/03 08:26:47;;;;;;;11.57;8.10;;;17.20;81.30;;;;;;10163930;28;20054;-63
2022/05/03 08:31:37;;;;;;;9.52;7.28;;;17.30;81.30;;;;;;10153713;28;20398;-65
2022/05/03 08:36:30;;;;;;;9.93;8.25;;;17.20;81.60;;;;;;10156399;28;20028;-68
2022/05/03 08:46:32;;;;;;;12.35;8.93;;;17.40;80.80;;;;;;10153001;28;20110;-65
2022/05/03 08:51:23;;;;;;;13.27;7.78;;;17.50;81.40;;;;;;10152270;28;20030;-65
2022/05/03 08:56:18;;;;;;;9.23;7.47;;;17.60;81.10;;;;;;10164458;28;20029;-65
2022/05/03 09:01:10;;;;;;;9.00;7.23;;;17.70;80.80;;;;;;10163872;28;20028;-64
2022/05/03 09:06:00;;;;;;;11.50;7.68;;;17.80;80.70;;;;;;10167029;28;20131;-65
2022/05/03 09:10:53;;;;;;;12.57;8.02;;;18.10;80.20;;;;;;10165659;28;20485;-67
2022/05/03 09:15:50;;;;;;;12.05;8.05;;;18.00;80.50;;;;;;10165431;28;20031;-68
2022/05/03 09:25:50;;;;;;;13.48;9.88;;;18.20;80.40;;;;;;10170805;28;20566;-60
2022/05/03 09:30:52;;;;;;;10.60;8.77;;;18.40;79.90;;;;;;10143939;28;20101;-68
2022/05/03 09:35:43;;;;;;;14.20;9.85;;;18.60;79.60;;;;;;10160454;28;20027;-60
2022/05/03 09:40:40;;;;;;;12.10;8.43;;;18.60;79.60;;;;;;10166832;28;20141;-61
2022/05/03 09:45:31;;;;;;;11.13;8.63;;;18.80;79.30;;;;;;10168101;28;20028;-66
2022/05/03 09:50:39;;;;;;;10.93;7.50;;;18.60;79.60;;;;;;10164860;28;20031;-66
2022/05/03 09:55:34;;;;;;;11.02;7.97;;;18.90;79.00;;;;;;10144392;28;20016;-68
2022/05/03 10:00:24;;;;;;;10.55;6.63;;;18.90;79.00;;;;;;10156854;28;20494;-65
2022/05/03 10:05:20;;;;;;;10.07;6.65;;;19.10;78.80;;;;;;10169582;28;20032;-70
2022/05/03 10:10:11;;;;;;;;;;;19.30;78.40;;;;;;10151036;28;20363;-66
2022/05/03 10:15:03;;;;;;;7.43;5.97;;;19.50;77.70;;;;;;10153133;28;19908;-71
2022/05/03 10:25:05;;;;;;;8.30;6.03;;;19.50;77.50;;;;;;10164620;28;20552;-67
2022/05/03 10:30:20;;;;;;;8.70;6.20;;;19.60;77.30;;;;;;10148220;28;20028;-64
2022/05/03 10:35:36;;;;;;;7.45;5.05;;;19.70;76.60;;;;;;10155497;28;20514;-64
2022/05/03 10:40:38;;;;;;;6.40;5.00;;;19.70;76.20;;;;;;10154711;28;20028;-61
2022/05/03 10:45:30;;;;;;;10.50;6.70;;;19.90;76.20;;;;;;10159183;28;20425;-60
2022/05/03 10:50:36;;;;;;;8.15;5.72;;;20.00;75.80;;;;;;10162566;28;20028;-68
2022/05/03 10:55:32;;;;;;;7.75;4.65;;;20.20;75.30;;;;;;10155608;28;20036;-60
2022/05/03 11:00:59;;;;;;;6.80;4.45;;;20.30;75.00;;;;;;10137887;28;20440;-63
2022/05/03 11:06:18;;;;;;;4.45;3.80;;;20.30;74.50;;;;;;10141480;28;20386;-59
2022/05/03 11:16:34;;;;;;;10.52;5.45;;;20.50;72.90;;;;;;10155696;28;20085;-63
2022/05/03 11:21:25;;;;;;;5.07;4.50;;;20.60;72.60;;;;;;10150590;28;20021;-66
2022/05/03 11:26:20;;;;;;;9.50;3.28;;;20.80;72.20;;;;;;10158258;28;20059;-63
2022/05/03 11:31:11;;;;;;;5.28;3.72;;;21.20;71.10;;;;;;10161848;28;20028;-66
2022/05/03 11:36:03;;;;;;;4.40;3.65;;;21.40;70.90;;;;;;10152326;28;20016;-66
2022/05/03 11:40:53;;;;;;;4.15;3.47;;;21.50;70.70;;;;;;10145681;28;20479;-65
2022/05/03 11:45:44;;;;;;;4.13;3.10;;;21.80;70.20;;;;;;10156915;28;20016;-66
2022/05/03 11:56:01;;;;;;;2.92;2.65;;;21.90;68.80;;;;;;10173525;28;20519;-65
2022/05/03 12:00:52;;;;;;;4.18;2.75;;;21.80;67.20;;;;;;10173283;28;20052;-64
2022/05/03 12:06:04;;;;;;;5.68;3.85;;;22.00;66.40;;;;;;10170819;28;20040;-64
2022/05/03 12:10:56;;;;;;;5.60;4.15;;;22.30;65.80;;;;;;10157158;28;20028;-64
2022/05/03 12:15:48;;;;;;;5.03;4.07;;;22.70;66.00;;;;;;10164457;28;20443;-62
2022/05/03 12:20:57;;;;;;;7.85;4.60;;;23.10;66.20;;;;;;10166884;28;20024;-65
2022/05/03 12:25:50;;;;;;;5.28;3.90;;;23.20;66.30;;;;;;10171556;28;20098;-64
2022/05/03 12:30:42;;;;;;;6.13;3.17;;;23.50;66.80;;;;;;10168275;28;20032;-64
2022/05/03 12:35:35;;;;;;;4.20;3.08;;;24.00;66.60;;;;;;10159718;28;20294;-67
2022/05/03 12:40:26;;;;;;;3.17;2.33;;;24.20;65.70;;;;;;10154613;28;20052;-64
2022/05/03 12:45:19;;;;;;;3.33;2.50;;;24.50;65.50;;;;;;10169781;28;20379;-66
2022/05/03 12:50:10;;;;;;;2.97;2.70;;;25.00;65.00;;;;;;10169246;28;20157;-64
2022/05/03 12:55:02;;;;;;;2.97;2.05;;;25.50;64.10;;;;;;10166033;28;20232;-66
2022/05/03 12:59:54;;;;;;;3.00;2.30;;;26.10;63.00;;;;;;10160488;28;20040;-64
2022/05/03 13:04:45;;;;;;;3.33;3.03;;;27.00;61.10;;;;;;10156002;28;20108;-72
2022/05/03 13:09:36;;;;;;;5.18;4.03;;;28.30;58.50;;;;;;10169691;28;20461;-63
2022/05/03 13:14:31;;;;;;;4.07;3.03;;;29.20;55.70;;;;;;10153431;28;20081;-65
2022/05/03 13:19:22;;;;;;;4.32;2.67;;;30.30;54.10;;;;;;10159327;28;20171;-64
2022/05/03 13:24:13;;;;;;;4.03;3.20;;;31.20;52.20;;;;;;10165004;28;20145;-67
2022/05/03 13:29:10;;;;;;;3.72;3.42;;;29.30;51.10;;;;;;10155754;28;20056;-67
2022/05/03 13:34:01;;;;;;;3.70;3.08;;;30.60;50.20;;;;;;10161533;28;20026;-66
2022/05/03 13:44:02;;;;;;;3.33;2.90;;;32.70;46.60;;;;;;10156975;28;20035;-64
2022/05/03 13:48:53;;;;;;;4.22;2.50;;;33.00;45.70;;;;;;10165600;28;20127;-64
2022/05/03 13:53:44;;;;;;;3.43;3.03;;;32.60;44.30;;;;;;10162862;28;20165;-64
2022/05/03 13:58:35;;;;;;;3.83;2.55;;;32.10;43.90;;;;;;10141179;28;20032;-67
2022/05/03 14:03:26;;;;;;;3.35;2.33;;;32.40;43.20;;;;;;10159574;28;20115;-62
2022/05/03 14:08:18;;;;;;;2.78;2.13;;;28.40;44.90;;;;;;10150325;28;20154;-63
2022/05/03 14:13:09;;;;;;;5.15;2.10;;;27.10;45.80;;;;;;10149007;28;20039;-65
2022/05/03 14:18:00;;;;;;;2.42;2.22;;;31.00;42.80;;;;;;10158772;28;20024;-69
2022/05/03 14:22:51;;;;;;;2.47;1.97;;;32.90;41.20;;;;;;10163465;28;20115;-68
2022/05/03 14:27:43;;;;;;;2.40;2.00;;;32.50;40.50;;;;;;10166219;28;20051;-65
2022/05/03 14:32:34;;;;;;;4.55;1.83;;;33.80;40.10;;;;;;10148680;28;20040;-65
2022/05/03 14:37:25;;;;;;;2.20;2.00;;;33.90;39.40;;;;;;10145505;28;20103;-65
2022/05/03 14:42:17;;;;;;;2.17;1.70;;;31.10;40.40;;;;;;10139414;28;20048;-64
2022/05/03 14:47:08;;;;;;;3.20;1.65;;;28.10;42.30;;;;;;10152100;28;20036;-60
2022/05/03 14:52:04;;;;;;;2.50;1.42;;;28.00;42.20;;;;;;10146131;28;20036;-66
2022/05/03 15:07:14;;;;;;;2.33;1.60;;;29.40;41.10;;;;;;10146567;28;20726;-69
2022/05/03 15:12:06;;;;;;;2.90;1.70;;;28.50;41.20;;;;;;10140509;28;20337;-65
2022/05/03 15:16:56;;;;;;;2.33;1.75;;;26.40;42.70;;;;;;10152772;28;20474;-65
2022/05/03 15:21:47;;;;;;;5.57;2.53;;;25.20;43.10;;;;;;10163049;28;20036;-63
2022/05/03 15:26:38;;;;;;;3.22;1.67;;;24.30;43.60;;;;;;10172516;28;20040;-62
2022/05/03 15:31:29;;;;;;;4.25;2.92;;;23.90;43.90;;;;;;10155230;28;20028;-62
2022/05/03 15:36:23;;;;;;;3.13;1.77;;;23.60;44.10;;;;;;10155623;28;20043;-64
2022/05/03 15:41:14;;;;;;;3.03;1.95;;;23.40;44.70;;;;;;10148161;28;20029;-63
2022/05/03 15:46:05;;;;;;;4.00;2.80;;;23.10;44.90;;;;;;10156816;28;20047;-64
2022/05/03 15:50:55;;;;;;;3.58;2.50;;;22.50;45.80;;;;;;10173898;28;20114;-67
2022/05/03 15:55:46;;;;;;;3.40;2.30;;;22.30;46.70;;;;;;10161130;28;20173;-63
2022/05/03 16:00:37;;;;;;;2.47;2.10;;;22.20;46.90;;;;;;10164385;28;20107;-64
2022/05/03 16:05:28;;;;;;;3.63;2.30;;;22.30;47.10;;;;;;10147701;28;20334;-61
2022/05/03 16:10:18;;;;;;;3.70;2.20;;;22.30;47.60;;;;;;10159955;28;20093;-66
2022/05/03 16:15:10;;;;;;;2.22;1.65;;;22.30;47.80;;;;;;10159572;28;20479;-62
2022/05/03 16:20:01;;;;;;;2.40;1.63;;;22.60;47.70;;;;;;10165896;28;20036;-62
2022/05/03 16:24:52;;;;;;;5.88;3.78;;;22.80;47.60;;;;;;10167759;28;20024;-61
2022/05/03 16:29:43;;;;;;;4.80;2.60;;;23.10;47.50;;;;;;10157091;28;20116;-59
2022/05/03 16:34:33;;;;;;;13.13;7.00;;;23.20;47.40;;;;;;10166008;28;20098;-62
2022/05/03 16:44:34;;;;;;;5.43;1.98;;;23.30;47.50;;;;;;10172369;28;20038;-60
2022/05/03 16:49:25;;;;;;;1.75;1.60;;;23.50;47.40;;;;;;10172925;28;20254;-58
2022/05/03 16:54:16;;;;;;;1.98;1.33;;;23.70;47.10;;;;;;10163170;28;20305;-59
2022/05/03 16:59:07;;;;;;;3.50;1.85;;;24.10;46.60;;;;;;10158437;28;20032;-66
2022/05/03 17:03:57;;;;;;;2.30;1.52;;;24.20;46.60;;;;;;10149210;28;20032;-62
2022/05/03 17:08:48;;;;;;;2.35;1.38;;;24.60;47.10;;;;;;10161048;28;20047;-64
2022/05/03 17:13:41;;;;;;;2.53;1.40;;;24.90;45.70;;;;;;10154830;28;20029;-61
2022/05/03 17:18:31;;;;;;;2.40;1.73;;;24.20;46.30;;;;;;10158718;28;20028;-61
2022/05/03 17:23:22;;;;;;;3.28;2.17;;;23.30;47.60;;;;;;10159665;28;20021;-63
2022/05/03 17:28:13;;;;;;;18.10;7.95;;;23.20;48.00;;;;;;10169198;28;20040;-52
2022/05/03 17:33:04;;;;;;;4.07;2.35;;;23.50;47.90;;;;;;10144608;28;20031;-54
2022/05/03 17:37:55;;;;;;;4.47;1.92;;;22.80;49.10;;;;;;10160581;28;20532;-51
2022/05/03 17:42:47;;;;;;;3.80;2.65;;;22.60;49.40;;;;;;10165141;28;20030;-62
2022/05/03 17:47:38;;;;;;;5.43;3.58;;;22.30;49.60;;;;;;10169398;28;20122;-62
2022/05/03 17:57:38;;;;;;;5.85;4.38;;;22.20;49.50;;;;;;10145424;28;20317;-65
2022/05/03 18:02:29;;;;;;;6.53;4.03;;;22.10;49.60;;;;;;10152768;28;20363;-64
2022/05/03 18:07:20;;;;;;;7.03;3.38;;;22.10;49.40;;;;;;10147413;28;20036;-68
2022/05/03 18:12:11;;;;;;;4.55;2.95;;;21.90;49.60;;;;;;10161105;28;20070;-66
2022/05/03 18:17:03;;;;;;;5.00;3.30;;;21.60;49.90;;;;;;10158924;28;20027;-64
2022/05/03 18:21:53;;;;;;;6.45;4.40;;;21.70;49.80;;;;;;10165895;28;20611;-65
2022/05/03 18:26:44;;;;;;;7.35;4.30;;;21.80;49.90;;;;;;10155064;28;20065;-66
2022/05/03 18:31:35;;;;;;;3.70;2.25;;;21.80;49.90;;;;;;10146630;28;20031;-70
2022/05/03 18:36:26;;;;;;;3.30;2.67;;;21.80;49.80;;;;;;10139059;28;20031;-66
2022/05/03 18:41:17;;;;;;;2.55;2.35;;;21.60;49.90;;;;;;10158549;28;20510;-67
2022/05/03 18:46:08;;;;;;;4.32;2.10;;;21.00;51.10;;;;;;10162748;28;20776;-68
2022/05/03 18:50:59;;;;;;;3.55;2.80;;;20.80;51.50;;;;;;10165258;28;20194;-67
2022/05/03 18:55:50;;;;;;;3.88;2.65;;;20.30;52.90;;;;;;10161564;28;20378;-66
2022/05/03 19:00:42;;;;;;;5.25;2.63;;;20.10;53.90;;;;;;10165279;28;20028;-68
2022/05/03 19:05:33;;;;;;;3.30;2.08;;;20.20;53.90;;;;;;10158871;28;20055;-68
2022/05/03 19:10:24;;;;;;;3.72;1.90;;;20.20;54.20;;;;;;10160864;28;20080;-68
2022/05/03 19:15:16;;;;;;;2.60;1.85;;;20.00;55.30;;;;;;10159718;28;20032;-67
2022/05/03 19:20:08;;;;;;;6.22;2.38;;;19.90;55.70;;;;;;10161784;28;20021;-70
2022/05/03 19:35:19;;;;;;;6.38;4.00;;;19.50;57.10;;;;;;10165223;28;20112;-69
2022/05/03 19:40:10;;;;;;;6.65;3.45;;;19.60;57.30;;;;;;10167814;28;20039;-67
2022/05/03 19:45:01;;;;;;;4.10;3.05;;;19.60;57.50;;;;;;10161232;28;20028;-71
2022/05/03 19:49:52;;;;;;;4.20;3.50;;;19.60;58.10;;;;;;10168712;28;20036;-70
2022/05/03 19:54:42;;;;;;;4.05;3.00;;;19.70;58.10;;;;;;10160170;28;20024;-71
2022/05/03 19:59:33;;;;;;;5.07;2.97;;;19.60;58.60;;;;;;10164940;28;20028;-68
2022/05/03 20:04:24;;;;;;;2.75;2.33;;;19.50;58.80;;;;;;10169828;28;20024;-69
2022/05/03 20:09:15;;;;;;;3.17;2.50;;;19.50;59.30;;;;;;10161073;28;20040;-71
2022/05/03 20:14:06;;;;;;;3.30;2.72;;;19.40;59.70;;;;;;10169599;28;20374;-71
2022/05/03 20:18:57;;;;;;;4.43;2.95;;;19.50;59.80;;;;;;10167250;28;20027;-70
2022/05/03 20:23:47;;;;;;;4.97;3.00;;;19.60;59.80;;;;;;10166202;28;20027;-70
2022/05/03 20:28:38;;;;;;;3.10;2.67;;;19.50;60.00;;;;;;10165916;28;20640;-69
2022/05/03 20:33:30;;;;;;;4.38;2.50;;;19.50;60.40;;;;;;10157586;28;20099;-68
2022/05/03 20:38:21;;;;;;;5.45;3.10;;;19.50;60.60;;;;;;10151901;28;20115;-70
2022/05/03 20:43:11;;;;;;;2.92;2.40;;;19.30;61.30;;;;;;10157565;28;20504;-68
2022/05/03 20:53:11;;;;;;;4.10;3.15;;;19.10;62.30;;;;;;10164941;28;20121;-69
2022/05/03 20:58:03;;;;;;;3.92;2.97;;;19.10;62.60;;;;;;10158527;28;20074;-68
2022/05/03 21:02:53;;;;;;;5.47;3.00;;;19.10;62.80;;;;;;10158902;28;20085;-68
2022/05/03 21:07:44;;;;;;;3.83;3.00;;;19.10;62.90;;;;;;10160338;28;20396;-67
2022/05/03 21:12:35;;;;;;;4.47;3.03;;;19.10;63.10;;;;;;10156644;28;20032;-69
2022/05/03 21:17:26;;;;;;;3.72;3.10;;;19.10;63.50;;;;;;10159179;28;20394;-68
2022/05/03 21:22:16;;;;;;;7.25;3.92;;;19.00;63.60;;;;;;10157904;28;20040;-66
2022/05/03 21:27:07;;;;;;;3.88;3.33;;;18.90;64.20;;;;;;10158328;28;20052;-68
2022/05/03 21:31:58;;;;;;;5.05;3.40;;;18.90;64.50;;;;;;10150077;28;20035;-69
2022/05/03 21:36:49;;;;;;;4.35;3.08;;;19.10;64.30;;;;;;10167867;28;20494;-70
2022/05/03 21:41:39;;;;;;;3.97;3.05;;;19.10;64.60;;;;;;10161891;28;20096;-69
2022/05/03 21:46:36;;;;;;;4.85;3.33;;;19.00;65.00;;;;;;10156794;28;20100;-67
2022/05/03 21:51:27;;;;;;;5.28;3.35;;;18.90;65.50;;;;;;10163473;28;20052;-66
2022/05/03 21:56:18;;;;;;;3.70;2.47;;;18.90;65.60;;;;;;10154802;28;20055;-69
2022/05/03 22:01:08;;;;;;;6.63;3.35;;;18.80;66.20;;;;;;10151549;28;20036;-67
2022/05/03 22:06:01;;;;;;;6.68;3.28;;;18.80;66.30;;;;;;10151586;28;20028;-66
2022/05/03 22:10:52;;;;;;;4.03;3.05;;;18.70;66.60;;;;;;10160257;28;20027;-66
2022/05/03 22:15:43;;;;;;;5.63;3.30;;;18.70;66.70;;;;;;10148011;28;20020;-69
2022/05/03 22:20:34;;;;;;;4.15;3.60;;;18.70;66.70;;;;;;10154802;28;20027;-66
2022/05/03 22:25:25;;;;;;;5.28;3.50;;;18.60;67.10;;;;;;10151919;28;20048;-67
2022/05/03 22:30:18;;;;;;;3.92;2.97;;;18.60;67.10;;;;;;10155139;28;20506;-66
2022/05/03 22:35:09;;;;;;;3.80;3.22;;;18.50;67.60;;;;;;10151135;28;20082;-65
2022/05/03 22:40:00;;;;;;;5.07;3.65;;;18.40;68.20;;;;;;10146229;28;20401;-66
2022/05/03 22:44:50;;;;;;;5.97;3.83;;;18.40;69.10;;;;;;10142367;28;20032;-66
2022/05/03 22:49:41;;;;;;;6.63;4.10;;;18.20;68.90;;;;;;10148808;28;20044;-66
2022/05/03 22:54:32;;;;;;;4.90;3.80;;;18.10;69.40;;;;;;10146519;28;20071;-65
2022/05/03 22:59:22;;;;;;;5.80;3.35;;;18.10;69.70;;;;;;10149846;28;20491;-66
2022/05/03 23:04:13;;;;;;;3.92;3.40;;;18.10;70.10;;;;;;10153025;28;20039;-66
2022/05/03 23:09:04;;;;;;;4.07;3.53;;;18.10;70.50;;;;;;10141997;28;20066;-65
2022/05/03 23:13:55;;;;;;;5.13;3.80;;;18.00;70.80;;;;;;10149757;28;20040;-67
2022/05/03 23:18:45;;;;;;;6.05;3.45;;;18.00;71.10;;;;;;10139506;28;20339;-66
2022/05/03 23:23:36;;;;;;;4.63;3.15;;;18.00;71.30;;;;;;10149257;28;20578;-68
2022/05/03 23:28:26;;;;;;;5.00;2.80;;;18.00;71.70;;;;;;10144835;28;20090;-67
2022/05/03 23:33:18;;;;;;;4.90;3.40;;;18.10;71.70;;;;;;10158844;28;20029;-64
2022/05/03 23:38:08;;;;;;;5.03;3.72;;;18.00;71.80;;;;;;10160602;28;20037;-70
2022/05/03 23:42:59;;;;;;;5.18;2.92;;;18.00;72.20;;;;;;10147630;28;20498;-69
2022/05/03 23:47:50;;;;;;;6.03;3.63;;;17.90;72.50;;;;;;10152155;28;20397;-65
2022/05/03 23:52:41;;;;;;;4.93;2.80;;;17.80;72.50;;;;;;10152870;28;20024;-65
2022/05/03 23:57:32;;;;;;;3.38;2.92;;;17.80;72.90;;;;;;10164709;28;20172;-65
